Time;durP1;ratioP1;P1;durP2;ratioP2;P2;SDS_P1;SDS_P2;PMS_P1;PMS_P2;Temp;Humidity;BMP_temperature;BMP_pressure;BME280_temperature;BME280_humidity;BME280_pressure;Samples;Min_cycle;Max_cycle;Signal;HPM_P1;HPM_P2
2023/11/08 00:02:22;;;;;;;;;;;9.10;99.90;;;;;;5054932;28;20010;-86
2023/11/08 00:04:48;;;;;;;;;;;9.10;99.90;;;;;;5059141;28;19909;-86
2023/11/08 00:07:14;;;;;;;;;;;9.10;99.90;;;;;;5057547;28;19909;-87
2023/11/08 00:09:40;;;;;;;;;;;9.10;99.90;;;;;;5057195;28;19915;-86
2023/11/08 00:12:05;;;;;;;;;;;9.10;99.90;;;;;;5051414;28;19967;-86
2023/11/08 00:14:31;;;;;;;;;;;9.10;99.90;;;;;;5049103;28;19933;-87
2023/11/08 00:16:58;;;;;;;;;;;9.10;99.90;;;;;;5055258;28;19916;-85
2023/11/08 00:19:23;;;;;;;;;;;9.10;99.90;;;;;;5055137;28;19915;-86
2023/11/08 00:21:49;;;;;;;;;;;9.10;99.90;;;;;;5070306;28;19925;-87
2023/11/08 00:24:15;;;;;;;;;;;9.10;99.90;;;;;;5087963;28;19920;-85
2023/11/08 00:26:41;;;;;;;;;;;9.10;99.90;;;;;;5077468;28;19918;-87
2023/11/08 00:29:06;;;;;;;;;;;9.10;99.90;;;;;;5058819;28;19999;-87
2023/11/08 00:31:32;;;;;;;;;;;9.10;99.90;;;;;;5052001;28;20388;-86
2023/11/08 00:33:58;;;;;;;;;;;9.10;99.90;;;;;;5075122;28;19916;-86
2023/11/08 00:36:24;;;;;;;;;;;9.10;99.90;;;;;;5074158;28;19916;-87
2023/11/08 00:38:49;;;;;;;;;;;9.10;99.90;;;;;;5068543;28;20650;-86
2023/11/08 00:41:15;;;;;;;;;;;9.10;99.90;;;;;;5058704;28;19908;-85
2023/11/08 00:43:41;;;;;;;;;;;9.10;99.90;;;;;;5075153;28;19916;-88
2023/11/08 00:46:08;;;;;;;;;;;9.10;99.90;;;;;;5074647;28;20332;-87
2023/11/08 00:48:36;;;;;;;;;;;9.00;99.90;;;;;;5054086;28;19917;-87
2023/11/08 00:51:02;;;;;;;;;;;8.90;99.90;;;;;;5061491;28;19912;-86
2023/11/08 00:53:28;;;;;;;;;;;8.90;99.90;;;;;;5062229;28;19923;-88
2023/11/08 00:55:55;;;;;;;;;;;8.90;99.90;;;;;;5059030;28;20381;-88
2023/11/08 00:58:21;;;;;;;;;;;8.90;99.90;;;;;;5074362;28;19913;-87
2023/11/08 01:00:49;;;;;;;;;;;8.90;99.90;;;;;;5074600;28;19919;-89
2023/11/08 01:03:16;;;;;;;;;;;8.90;99.90;;;;;;5062511;28;19915;-88
2023/11/08 01:05:41;;;;;;;;;;;8.90;99.90;;;;;;5058989;28;19923;-90
2023/11/08 01:08:07;;;;;;;;;;;8.90;99.90;;;;;;5080072;28;19912;-89
2023/11/08 01:10:33;;;;;;;;;;;8.90;99.90;;;;;;5078228;28;19925;-88
2023/11/08 01:12:58;;;;;;;;;;;8.90;99.90;;;;;;5076818;28;19908;-90
2023/11/08 01:15:24;;;;;;;;;;;8.80;99.90;;;;;;5081309;28;19923;-90
2023/11/08 01:17:50;;;;;;;;;;;8.80;99.90;;;;;;5070842;28;19916;-90
2023/11/08 01:20:16;;;;;;;;;;;8.80;99.90;;;;;;5077655;28;20008;-89
2023/11/08 01:22:41;;;;;;;;;;;8.90;99.90;;;;;;5059047;28;19974;-88
2023/11/08 01:25:08;;;;;;;;;;;8.90;99.90;;;;;;5066087;28;19966;-90
2023/11/08 01:27:34;;;;;;;;;;;8.90;99.90;;;;;;5052178;28;19935;-89
2023/11/08 01:30:01;;;;;;;;;;;8.90;99.90;;;;;;5072381;28;19909;-89
2023/11/08 01:32:27;;;;;;;;;;;8.90;99.90;;;;;;5082683;28;19988;-88
2023/11/08 01:34:52;;;;;;;;;;;9.00;99.90;;;;;;5096033;28;19905;-90
2023/11/08 01:37:18;;;;;;;;;;;9.00;99.90;;;;;;5074405;28;19978;-89
2023/11/08 01:39:44;;;;;;;;;;;9.00;99.90;;;;;;5061421;28;19920;-88
2023/11/08 01:42:10;;;;;;;;;;;9.10;99.90;;;;;;5051213;28;20328;-88
2023/11/08 01:44:35;;;;;;;;;;;9.10;99.90;;;;;;5052876;28;19909;-90
2023/11/08 01:47:02;;;;;;;;;;;9.10;99.90;;;;;;5073299;28;19924;-89
2023/11/08 01:49:28;;;;;;;;;;;9.10;99.90;;;;;;5065734;28;19916;-90
2023/11/08 01:51:54;;;;;;;;;;;9.00;99.90;;;;;;5057284;28;19909;-88
2023/11/08 01:54:20;;;;;;;;;;;9.00;99.90;;;;;;5065936;28;20301;-88
2023/11/08 01:56:46;;;;;;;;;;;9.00;99.90;;;;;;5069027;28;20035;-89
2023/11/08 01:59:16;;;;;;;;;;;8.90;99.90;;;;;;5055682;28;19901;-90
2023/11/08 02:01:41;;;;;;;;;;;8.80;99.90;;;;;;5069040;28;20414;-88
2023/11/08 02:04:07;;;;;;;;;;;8.80;99.90;;;;;;5083610;28;19916;-90
2023/11/08 02:06:33;;;;;;;;;;;8.70;99.90;;;;;;5069515;28;19968;-89
2023/11/08 02:09:03;;;;;;;;;;;8.60;99.90;;;;;;5058544;28;19962;-90
2023/11/08 02:11:29;;;;;;;;;;;8.60;99.90;;;;;;5095208;28;19924;-89
2023/11/08 02:13:54;;;;;;;;;;;8.50;99.90;;;;;;5065913;28;19960;-89
2023/11/08 02:16:20;;;;;;;;;;;8.60;99.90;;;;;;5062617;28;19969;-88
2023/11/08 02:18:46;;;;;;;;;;;8.60;99.90;;;;;;5062243;28;19909;-89
2023/11/08 02:21:14;;;;;;;;;;;8.60;99.90;;;;;;5073459;28;19979;-89
2023/11/08 02:23:40;;;;;;;;;;;8.70;99.90;;;;;;5064209;28;19917;-88
2023/11/08 02:26:06;;;;;;;;;;;8.70;99.90;;;;;;5054007;28;19912;-88
2023/11/08 02:28:31;;;;;;;;;;;8.70;99.90;;;;;;5057241;28;19958;-88
2023/11/08 02:30:58;;;;;;;;;;;8.70;99.90;;;;;;5073984;28;20289;-89
2023/11/08 02:33:24;;;;;;;;;;;8.80;99.90;;;;;;5076982;28;19909;-88
2023/11/08 02:35:50;;;;;;;;;;;8.80;99.90;;;;;;5055164;28;20255;-88
2023/11/08 02:38:17;;;;;;;;;;;8.80;99.90;;;;;;5051922;28;19951;-89
2023/11/08 02:40:43;;;;;;;;;;;8.80;99.90;;;;;;5047780;28;19915;-88
2023/11/08 02:43:09;;;;;;;;;;;8.80;99.90;;;;;;5046520;28;20286;-89
2023/11/08 02:45:35;;;;;;;;;;;8.80;99.90;;;;;;5058507;28;19909;-91
2023/11/08 02:48:03;;;;;;;;;;;8.70;99.90;;;;;;5052964;28;19917;-92
2023/11/08 02:50:31;;;;;;;;;;;8.70;99.90;;;;;;5056748;28;19909;-89
2023/11/08 02:52:58;;;;;;;;;;;8.60;99.90;;;;;;5053574;28;19951;-90
2023/11/08 02:55:25;;;;;;;;;;;8.60;99.90;;;;;;5071615;28;19924;-88
2023/11/08 02:57:51;;;;;;;;;;;8.50;99.90;;;;;;5087708;28;19935;-90
2023/11/08 03:00:17;;;;;;;;;;;8.40;99.90;;;;;;5078031;28;19912;-87
2023/11/08 03:02:43;;;;;;;;;;;8.40;99.90;;;;;;5079123;28;19920;-88
2023/11/08 03:05:08;;;;;;;;;;;8.40;99.90;;;;;;5068176;28;19912;-90
2023/11/08 03:07:34;;;;;;;;;;;8.40;99.90;;;;;;5068923;28;19909;-90
2023/11/08 03:10:00;;;;;;;;;;;8.30;99.90;;;;;;5079950;28;19917;-90
2023/11/08 03:12:25;;;;;;;;;;;8.20;99.90;;;;;;5078816;28;19915;-89
2023/11/08 03:14:51;;;;;;;;;;;8.30;99.90;;;;;;5069651;28;19969;-90
2023/11/08 03:17:17;;;;;;;;;;;8.30;99.90;;;;;;5059102;28;20401;-90
2023/11/08 03:19:43;;;;;;;;;;;8.40;99.90;;;;;;5078274;28;20379;-91
2023/11/08 03:22:15;;;;;;;;;;;8.40;99.90;;;;;;5077257;28;19952;-89
2023/11/08 03:24:43;;;;;;;;;;;8.40;99.90;;;;;;5076933;28;19913;-88
2023/11/08 03:27:08;;;;;;;;;;;8.50;99.90;;;;;;5076289;28;19954;-89
2023/11/08 03:29:37;;;;;;;;;;;8.50;99.90;;;;;;5078475;28;19912;-92
2023/11/08 03:32:03;;;;;;;;;;;8.60;99.90;;;;;;5071832;28;19893;-90
2023/11/08 03:34:28;;;;;;;;;;;8.60;99.90;;;;;;5080825;28;19931;-90
2023/11/08 03:36:54;;;;;;;;;;;8.70;99.90;;;;;;5082467;28;19897;-91
2023/11/08 03:39:20;;;;;;;;;;;8.70;99.90;;;;;;5082925;28;19991;-90
2023/11/08 03:41:46;;;;;;;;;;;8.70;99.90;;;;;;5065737;28;19909;-91
2023/11/08 03:44:12;;;;;;;;;;;8.70;99.90;;;;;;5078457;28;20326;-90
2023/11/08 03:46:38;;;;;;;;;;;8.80;99.90;;;;;;5064171;28;20011;-91
2023/11/08 03:49:04;;;;;;;;;;;8.80;99.90;;;;;;5064086;28;20407;-92
2023/11/08 03:51:30;;;;;;;;;;;8.80;99.90;;;;;;5075768;28;19912;-91
2023/11/08 03:53:55;;;;;;;;;;;8.80;99.90;;;;;;5078044;28;20354;-91
2023/11/08 03:56:21;;;;;;;;;;;8.90;99.90;;;;;;5078587;28;19920;-91
2023/11/08 03:58:47;;;;;;;;;;;8.90;99.90;;;;;;5070938;28;19964;-91
2023/11/08 04:01:13;;;;;;;;;;;8.90;99.90;;;;;;5094467;28;19915;-89
2023/11/08 04:03:38;;;;;;;;;;;8.80;99.90;;;;;;5075436;28;19909;-90
2023/11/08 04:06:04;;;;;;;;;;;9.00;99.90;;;;;;5086918;28;19908;-92
2023/11/08 04:08:31;;;;;;;;;;;8.90;99.90;;;;;;5071548;28;19913;-91
2023/11/08 04:10:57;;;;;;;;;;;8.90;99.90;;;;;;5078075;28;19973;-91
2023/11/08 04:13:22;;;;;;;;;;;9.00;99.90;;;;;;5070187;28;20332;-90
2023/11/08 04:15:48;;;;;;;;;;;9.00;99.90;;;;;;5079944;28;19940;-91
2023/11/08 04:18:14;;;;;;;;;;;9.00;99.90;;;;;;5076797;28;19908;-91
2023/11/08 04:20:39;;;;;;;;;;;9.00;99.90;;;;;;5076891;28;19916;-91
2023/11/08 04:23:05;;;;;;;;;;;9.00;99.90;;;;;;5070375;28;20000;-91
2023/11/08 04:25:31;;;;;;;;;;;9.00;99.90;;;;;;5058614;28;19940;-91
2023/11/08 04:27:57;;;;;;;;;;;9.00;99.90;;;;;;5076634;28;20369;-89
2023/11/08 04:30:22;;;;;;;;;;;9.00;99.90;;;;;;5068840;28;19909;-88
2023/11/08 04:32:48;;;;;;;;;;;9.10;99.90;;;;;;5069791;28;19909;-90
2023/11/08 04:35:17;;;;;;;;;;;9.10;99.90;;;;;;5062727;28;19917;-91
2023/11/08 04:37:44;;;;;;;;;;;9.00;99.90;;;;;;5078040;28;19912;-91
2023/11/08 04:40:13;;;;;;;;;;;9.00;99.90;;;;;;5078496;28;20365;-90
2023/11/08 04:42:40;;;;;;;;;;;9.00;99.90;;;;;;5086222;28;19903;-90
2023/11/08 04:45:06;;;;;;;;;;;9.00;99.90;;;;;;5091718;28;19978;-91
2023/11/08 04:47:33;;;;;;;;;;;9.00;99.90;;;;;;5093890;28;19917;-88
2023/11/08 04:49:59;;;;;;;;;;;9.00;99.90;;;;;;5080586;28;20004;-90
2023/11/08 04:52:24;;;;;;;;;;;9.00;99.90;;;;;;5095406;28;19916;-90
2023/11/08 04:54:50;;;;;;;;;;;9.00;99.90;;;;;;5075765;28;19995;-92
2023/11/08 04:57:17;;;;;;;;;;;9.00;99.90;;;;;;5068031;28;19929;-91
2023/11/08 04:59:43;;;;;;;;;;;9.00;99.90;;;;;;5085463;28;20003;-93
2023/11/08 05:02:09;;;;;;;;;;;9.10;99.90;;;;;;5081384;28;19952;-91
2023/11/08 05:04:39;;;;;;;;;;;9.10;99.90;;;;;;5064311;28;19916;-92
2023/11/08 05:07:06;;;;;;;;;;;9.10;99.90;;;;;;5074221;28;19908;-92
2023/11/08 05:09:32;;;;;;;;;;;9.10;99.90;;;;;;5061366;28;19915;-90
2023/11/08 05:11:58;;;;;;;;;;;9.10;99.90;;;;;;5037107;28;19928;-94
2023/11/08 05:14:24;;;;;;;;;;;9.10;99.90;;;;;;5048111;28;19917;-88
2023/11/08 05:16:50;;;;;;;;;;;9.10;99.90;;;;;;5041465;28;19984;-90
2023/11/08 05:19:17;;;;;;;;;;;9.10;99.90;;;;;;5049607;28;19916;-90
2023/11/08 05:21:47;;;;;;;;;;;9.00;99.90;;;;;;5023605;28;19910;-91
2023/11/08 05:24:13;;;;;;;;;;;9.00;99.90;;;;;;5051359;28;20357;-91
2023/11/08 05:26:39;;;;;;;;;;;9.00;99.90;;;;;;5052837;28;19989;-91
2023/11/08 05:29:04;;;;;;;;;;;9.00;99.90;;;;;;5056737;28;19909;-92
2023/11/08 05:31:33;;;;;;;;;;;9.00;99.90;;;;;;5048371;28;19933;-92
2023/11/08 05:34:01;;;;;;;;;;;9.00;99.90;;;;;;5037097;28;20013;-91
2023/11/08 05:36:27;;;;;;;;;;;9.00;99.90;;;;;;5042871;28;19913;-88
2023/11/08 05:38:52;;;;;;;;;;;9.00;99.90;;;;;;5041582;28;19910;-92
2023/11/08 05:41:19;;;;;;;;;;;9.00;99.90;;;;;;5022004;28;19909;-91
2023/11/08 05:43:44;;;;;;;;;;;9.00;99.90;;;;;;5045438;28;20262;-91
2023/11/08 05:46:11;;;;;;;;;;;9.00;99.90;;;;;;5058526;28;20008;-91
2023/11/08 05:48:37;;;;;;;;;;;9.00;99.90;;;;;;5076573;28;19917;-85
2023/11/08 05:51:05;;;;;;;;;;;9.00;99.90;;;;;;5059171;28;19913;-89
2023/11/08 05:53:31;;;;;;;;;;;8.90;99.90;;;;;;5055354;28;19980;-90
2023/11/08 05:55:57;;;;;;;;;;;9.00;99.90;;;;;;5055731;28;19940;-88
2023/11/08 05:58:23;;;;;;;;;;;9.00;99.90;;;;;;5048528;28;20329;-90
2023/11/08 06:00:49;;;;;;;;;;;8.90;99.90;;;;;;5054710;28;19920;-90
2023/11/08 06:03:15;;;;;;;;;;;8.90;99.90;;;;;;5051767;28;19909;-86
2023/11/08 06:05:41;;;;;;;;;;;9.00;99.90;;;;;;5043980;28;20015;-92
2023/11/08 06:08:08;;;;;;;;;;;9.00;99.90;;;;;;5044285;28;19913;-89
2023/11/08 06:10:34;;;;;;;;;;;9.00;99.90;;;;;;5052845;28;19921;-84
2023/11/08 06:13:00;;;;;;;;;;;9.10;99.90;;;;;;5051473;28;20397;-84
2023/11/08 06:15:25;;;;;;;;;;;9.10;99.90;;;;;;5060121;28;19956;-85
2023/11/08 06:17:52;;;;;;;;;;;9.10;99.90;;;;;;5070890;28;19917;-85
2023/11/08 06:20:18;;;;;;;;;;;9.10;99.90;;;;;;5053699;28;19915;-85
2023/11/08 06:22:44;;;;;;;;;;;9.20;99.90;;;;;;5052151;28;20285;-86
2023/11/08 06:25:10;;;;;;;;;;;9.20;99.90;;;;;;5052286;28;19971;-85
2023/11/08 06:27:36;;;;;;;;;;;9.20;99.90;;;;;;5051472;28;19908;-84
2023/11/08 06:30:02;;;;;;;;;;;9.20;99.90;;;;;;5069177;28;19912;-85
2023/11/08 06:32:28;;;;;;;;;;;9.20;99.90;;;;;;5074727;28;19908;-86
2023/11/08 06:34:53;;;;;;;;;;;9.30;99.90;;;;;;5064619;28;20011;-86
2023/11/08 06:37:19;;;;;;;;;;;9.30;99.90;;;;;;5076684;28;19908;-85
2023/11/08 06:39:44;;;;;;;;;;;9.30;99.90;;;;;;5076823;28;19913;-85
2023/11/08 06:42:11;;;;;;;;;;;9.20;99.90;;;;;;5076069;28;19959;-86
2023/11/08 06:44:37;;;;;;;;;;;9.20;99.90;;;;;;5075357;28;20381;-84
2023/11/08 06:47:03;;;;;;;;;;;9.20;99.90;;;;;;5061801;28;20003;-85
2023/11/08 06:49:28;;;;;;;;;;;9.10;99.90;;;;;;5076200;28;20353;-85
2023/11/08 06:51:54;;;;;;;;;;;9.20;99.90;;;;;;5064511;28;19935;-86
2023/11/08 06:54:20;;;;;;;;;;;9.30;99.90;;;;;;5078254;28;19924;-83
2023/11/08 06:56:46;;;;;;;;;;;9.40;99.90;;;;;;5077401;28;20004;-87
2023/11/08 06:59:11;;;;;;;;;;;9.30;99.90;;;;;;5076041;28;19935;-87
2023/11/08 07:01:37;;;;;;;;;;;9.30;99.90;;;;;;5075722;28;19917;-87
2023/11/08 07:04:04;;;;;;;;;;;9.20;99.90;;;;;;5071271;28;20067;-86
2023/11/08 07:06:29;;;;;;;;;;;9.20;99.90;;;;;;5079521;28;19916;-85
2023/11/08 07:08:55;;;;;;;;;;;9.30;99.90;;;;;;5063517;28;19913;-86
2023/11/08 07:11:21;;;;;;;;;;;9.40;99.90;;;;;;5075457;28;19944;-87
2023/11/08 07:13:50;;;;;;;;;;;9.40;99.90;;;;;;5075241;28;20400;-86
2023/11/08 07:16:17;;;;;;;;;;;9.60;99.90;;;;;;5060813;28;19908;-87
2023/11/08 07:18:44;;;;;;;;;;;9.60;99.90;;;;;;5075395;28;19916;-85
2023/11/08 07:21:16;;;;;;;;;;;9.70;99.90;;;;;;5075522;28;19908;-85
2023/11/08 07:23:41;;;;;;;;;;;9.70;99.90;;;;;;5068853;28;19919;-86
2023/11/08 07:26:07;;;;;;;;;;;9.70;99.90;;;;;;5060611;28;19912;-86
2023/11/08 07:28:33;;;;;;;;;;;9.80;99.90;;;;;;5072590;28;19917;-86
2023/11/08 07:30:58;;;;;;;;;;;9.80;99.90;;;;;;5077164;28;20010;-85
2023/11/08 07:33:25;;;;;;;;;;;9.90;99.90;;;;;;5077181;28;19909;-87
2023/11/08 07:36:08;;;;;;;;;;;9.90;99.90;;;;;;5087541;28;19998;-86
2023/11/08 07:38:41;;;;;;;;;;;10.00;99.90;;;;;;5071630;28;19912;-87
2023/11/08 07:41:15;;;;;;;;;;;9.90;99.80;;;;;;5063784;28;20226;-86
2023/11/08 07:43:41;;;;;;;;;;;9.80;99.70;;;;;;5059129;28;19908;-85
2023/11/08 07:46:08;;;;;;;;;;;9.70;99.70;;;;;;5064081;28;19965;-85
2023/11/08 07:48:34;;;;;;;;;;;9.70;99.90;;;;;;5070408;28;19915;-86
2023/11/08 07:51:00;;;;;;;;;;;9.60;99.90;;;;;;5079416;28;19938;-86
2023/11/08 07:53:26;;;;;;;;;;;9.70;99.90;;;;;;5060407;28;20281;-86
2023/11/08 07:55:54;;;;;;;;;;;9.70;99.90;;;;;;5061660;28;19916;-86
2023/11/08 07:58:20;;;;;;;;;;;9.70;99.90;;;;;;5074537;28;19955;-87
2023/11/08 08:00:45;;;;;;;;;;;9.70;99.80;;;;;;5074583;28;19908;-86
2023/11/08 08:03:14;;;;;;;;;;;9.70;99.80;;;;;;5076631;28;20453;-86
2023/11/08 08:05:41;;;;;;;;;;;9.70;99.80;;;;;;5073739;28;19955;-86
2023/11/08 08:08:07;;;;;;;;;;;9.80;99.90;;;;;;5075470;28;19909;-85
2023/11/08 08:10:33;;;;;;;;;;;9.80;99.90;;;;;;5076343;28;19920;-87
2023/11/08 08:13:05;;;;;;;;;;;10.00;99.90;;;;;;5079339;28;19909;-85
2023/11/08 08:15:31;;;;;;;;;;;10.10;99.90;;;;;;5075747;28;19927;-87
2023/11/08 08:17:59;;;;;;;;;;;10.10;99.90;;;;;;5073055;28;19928;-87
2023/11/08 08:20:25;;;;;;;;;;;10.20;99.90;;;;;;5067107;28;19913;-86
2023/11/08 08:22:52;;;;;;;;;;;10.20;99.70;;;;;;5072296;28;19914;-86
2023/11/08 08:25:18;;;;;;;;;;;10.20;99.40;;;;;;5072738;28;19916;-86
2023/11/08 08:27:44;;;;;;;;;;;10.10;99.30;;;;;;5073609;28;20317;-87
2023/11/08 08:30:11;;;;;;;;;;;10.00;99.30;;;;;;5073805;28;19928;-86
2023/11/08 08:32:37;;;;;;;;;;;9.90;99.30;;;;;;5074363;28;20479;-86
2023/11/08 08:35:04;;;;;;;;;;;9.90;99.40;;;;;;5073968;28;19955;-87
2023/11/08 08:37:31;;;;;;;;;;;10.00;99.40;;;;;;5066605;28;20073;-86
2023/11/08 08:39:57;;;;;;;;;;;10.00;99.40;;;;;;5068604;28;19912;-87
2023/11/08 08:42:23;;;;;;;;;;;9.90;99.30;;;;;;5067675;28;19916;-87
2023/11/08 08:44:49;;;;;;;;;;;9.90;99.40;;;;;;5073000;28;19912;-86
2023/11/08 08:47:15;;;;;;;;;;;9.90;99.40;;;;;;5080462;28;19908;-88
2023/11/08 08:49:40;;;;;;;;;;;9.90;99.40;;;;;;5074231;28;19913;-89
2023/11/08 08:52:06;;;;;;;;;;;9.90;99.40;;;;;;5050637;28;19924;-86
2023/11/08 08:54:35;;;;;;;;;;;9.90;99.40;;;;;;5061897;28;19969;-86
2023/11/08 08:57:02;;;;;;;;;;;9.90;99.50;;;;;;5072920;28;19970;-87
2023/11/08 08:59:31;;;;;;;;;;;9.90;99.50;;;;;;5073596;28;19923;-87
2023/11/08 09:01:57;;;;;;;;;;;10.00;99.50;;;;;;5073796;28;19912;-87
2023/11/08 09:04:25;;;;;;;;;;;10.10;99.20;;;;;;5069109;28;20453;-86
2023/11/08 09:06:50;;;;;;;;;;;10.10;99.10;;;;;;5073697;28;19924;-87
2023/11/08 09:09:16;;;;;;;;;;;10.10;98.90;;;;;;5067986;28;19945;-87
2023/11/08 09:11:42;;;;;;;;;;;10.00;98.90;;;;;;5054398;28;19929;-87
2023/11/08 09:14:11;;;;;;;;;;;10.10;99.00;;;;;;5053213;28;19924;-87
2023/11/08 09:16:37;;;;;;;;;;;10.10;99.00;;;;;;5061314;28;20293;-87
2023/11/08 09:19:05;;;;;;;;;;;10.10;99.10;;;;;;5072627;28;19969;-87
2023/11/08 09:21:30;;;;;;;;;;;10.20;99.10;;;;;;5067230;28;19984;-87
2023/11/08 09:23:56;;;;;;;;;;;10.30;98.90;;;;;;5085381;28;19904;-87
2023/11/08 09:26:22;;;;;;;;;;;10.40;98.80;;;;;;5084183;28;19917;-89
2023/11/08 09:28:48;;;;;;;;;;;10.50;98.50;;;;;;5072060;28;19930;-87
2023/11/08 09:31:16;;;;;;;;;;;10.60;98.20;;;;;;5074122;28;19916;-88
2023/11/08 09:33:42;;;;;;;;;;;10.60;97.70;;;;;;5075602;28;20576;-88
2023/11/08 09:36:08;;;;;;;;;;;10.60;97.50;;;;;;5072979;28;19909;-86
2023/11/08 09:38:33;;;;;;;;;;;10.60;97.30;;;;;;5075172;28;20411;-87
2023/11/08 09:40:59;;;;;;;;;;;10.50;97.30;;;;;;5061436;28;20000;-86
2023/11/08 09:43:26;;;;;;;;;;;10.60;97.30;;;;;;5066859;28;19954;-88
2023/11/08 09:45:52;;;;;;;;;;;10.60;97.00;;;;;;5060474;28;19943;-88
2023/11/08 09:48:19;;;;;;;;;;;10.50;96.90;;;;;;5059823;28;19920;-87
2023/11/08 09:50:46;;;;;;;;;;;10.60;96.60;;;;;;5061228;28;19909;-88
2023/11/08 09:53:12;;;;;;;;;;;10.40;96.70;;;;;;5073592;28;19909;-88
2023/11/08 09:55:38;;;;;;;;;;;10.40;96.80;;;;;;5072781;28;20015;-88
2023/11/08 09:58:06;;;;;;;;;;;10.50;96.70;;;;;;5069487;28;19912;-86
2023/11/08 10:00:32;;;;;;;;;;;10.50;96.70;;;;;;5075003;28;19912;-86
2023/11/08 10:02:58;;;;;;;;;;;10.60;96.80;;;;;;5075836;28;19916;-86
2023/11/08 10:05:23;;;;;;;;;;;10.70;96.60;;;;;;5079592;28;19908;-87
2023/11/08 10:07:49;;;;;;;;;;;10.80;96.60;;;;;;5079055;28;20401;-88
2023/11/08 10:10:16;;;;;;;;;;;10.80;96.20;;;;;;5077780;28;19921;-87
2023/11/08 10:12:43;;;;;;;;;;;10.80;96.20;;;;;;5078277;28;20323;-87
2023/11/08 10:15:08;;;;;;;;;;;10.90;96.20;;;;;;5067355;28;19935;-88
2023/11/08 10:17:38;;;;;;;;;;;10.80;96.00;;;;;;5073003;28;20082;-87
2023/11/08 10:20:08;;;;;;;;;;;10.90;96.10;;;;;;5076999;28;19916;-87
2023/11/08 10:22:34;;;;;;;;;;;10.90;96.10;;;;;;5076936;28;19952;-88
2023/11/08 10:25:01;;;;;;;;;;;10.90;95.70;;;;;;5075567;28;19961;-87
2023/11/08 10:27:33;;;;;;;;;;;10.90;95.80;;;;;;5074801;28;19938;-88
2023/11/08 10:30:20;;;;;;;;;;;10.90;95.80;;;;;;5066635;28;19913;-88
2023/11/08 10:32:46;;;;;;;;;;;10.80;95.30;;;;;;5069057;28;19932;-88
2023/11/08 10:35:16;;;;;;;;;;;10.70;95.20;;;;;;5075036;28;19920;-87
2023/11/08 10:37:42;;;;;;;;;;;10.70;95.10;;;;;;5075495;28;19908;-89
2023/11/08 10:40:12;;;;;;;;;;;10.60;95.30;;;;;;5074861;28;19908;-89
2023/11/08 10:42:38;;;;;;;;;;;10.70;95.50;;;;;;5077056;28;19913;-87
2023/11/08 10:45:08;;;;;;;;;;;10.70;95.40;;;;;;5076049;28;19908;-87
2023/11/08 10:47:35;;;;;;;;;;;10.80;95.40;;;;;;5061751;28;20004;-87
2023/11/08 10:50:01;;;;;;;;;;;10.80;95.20;;;;;;5076735;28;19908;-89
2023/11/08 10:52:27;;;;;;;;;;;10.80;95.30;;;;;;5079439;28;19939;-86
2023/11/08 10:54:53;;;;;;;;;;;10.80;95.50;;;;;;5074227;28;19916;-87
2023/11/08 10:57:20;;;;;;;;;;;10.90;95.40;;;;;;5076846;28;19915;-88
2023/11/08 10:59:50;;;;;;;;;;;10.90;95.20;;;;;;5077330;28;19966;-88
2023/11/08 11:02:18;;;;;;;;;;;10.80;95.20;;;;;;5074638;28;19983;-88
2023/11/08 11:04:45;;;;;;;;;;;10.70;95.10;;;;;;5079399;28;19971;-91
2023/11/08 11:07:12;;;;;;;;;;;10.60;95.00;;;;;;5076413;28;19908;-88
2023/11/08 11:09:38;;;;;;;;;;;10.70;95.30;;;;;;5081939;28;19908;-88
2023/11/08 11:12:09;;;;;;;;;;;10.70;95.30;;;;;;5093762;28;20015;-89
2023/11/08 11:14:37;;;;;;;;;;;10.80;95.10;;;;;;5085538;28;20439;-87
2023/11/08 11:17:09;;;;;;;;;;;10.80;95.10;;;;;;5075418;28;19945;-87
2023/11/08 11:19:36;;;;;;;;;;;10.70;95.00;;;;;;5075766;28;20044;-86
2023/11/08 11:22:05;;;;;;;;;;;10.80;95.10;;;;;;5070566;28;19920;-89
2023/11/08 11:24:42;;;;;;;;;;;10.80;95.20;;;;;;5075760;28;19931;-87
2023/11/08 11:27:09;;;;;;;;;;;10.80;95.30;;;;;;5073862;28;19908;-87
2023/11/08 11:29:35;;;;;;;;;;;10.70;94.90;;;;;;5073677;28;19908;-88
2023/11/08 11:32:05;;;;;;;;;;;10.70;94.80;;;;;;5070579;28;19932;-89
2023/11/08 11:34:34;;;;;;;;;;;10.50;94.90;;;;;;5073996;28;19920;-86
2023/11/08 11:37:05;;;;;;;;;;;10.70;94.90;;;;;;5086724;28;19972;-88
2023/11/08 11:39:32;;;;;;;;;;;10.70;94.90;;;;;;5073763;28;19944;-88
2023/11/08 11:41:58;;;;;;;;;;;10.70;95.00;;;;;;5074955;28;19912;-87
2023/11/08 11:44:37;;;;;;;;;;;10.70;95.10;;;;;;5074707;28;19908;-87
2023/11/08 11:47:09;;;;;;;;;;;10.70;95.00;;;;;;5067617;28;19917;-87
2023/11/08 11:49:53;;;;;;;;;;;10.80;95.10;;;;;;5066815;28;19913;-87
2023/11/08 11:52:19;;;;;;;;;;;10.80;95.20;;;;;;5074062;28;19920;-87
2023/11/08 11:54:49;;;;;;;;;;;10.80;95.20;;;;;;5062227;28;19917;-89
2023/11/08 11:57:20;;;;;;;;;;;10.70;95.20;;;;;;5074758;28;19991;-89
2023/11/08 11:59:46;;;;;;;;;;;10.70;95.30;;;;;;5068083;28;19909;-89
2023/11/08 12:02:12;;;;;;;;;;;10.80;95.40;;;;;;5062710;28;20370;-89
2023/11/08 12:04:39;;;;;;;;;;;10.70;95.30;;;;;;5070620;28;19908;-88
2023/11/08 12:07:14;;;;;;;;;;;10.70;95.20;;;;;;5075754;28;20266;-88
2023/11/08 12:09:41;;;;;;;;;;;10.60;95.20;;;;;;5078013;28;19918;-88
2023/11/08 12:12:06;;;;;;;;;;;10.60;95.30;;;;;;5069789;28;19957;-88
2023/11/08 12:14:33;;;;;;;;;;;10.60;95.30;;;;;;5075005;28;20015;-88
2023/11/08 12:16:58;;;;;;;;;;;10.60;95.40;;;;;;5075552;28;19915;-87
2023/11/08 12:19:26;;;;;;;;;;;10.60;95.40;;;;;;5075066;28;19995;-85
2023/11/08 12:21:52;;;;;;;;;;;10.60;95.40;;;;;;5072834;28;19978;-87
2023/11/08 12:24:18;;;;;;;;;;;10.60;95.40;;;;;;5073276;28;19912;-87
2023/11/08 12:26:43;;;;;;;;;;;10.60;95.50;;;;;;5065502;28;19908;-87
2023/11/08 12:29:09;;;;;;;;;;;10.60;95.50;;;;;;5070628;28;19912;-87
2023/11/08 12:31:38;;;;;;;;;;;10.60;95.50;;;;;;5074133;28;20273;-87
2023/11/08 12:34:04;;;;;;;;;;;10.60;95.60;;;;;;5091765;28;19904;-86
2023/11/08 12:36:30;;;;;;;;;;;10.60;95.60;;;;;;5080650;28;19927;-87
2023/11/08 12:38:56;;;;;;;;;;;10.60;95.60;;;;;;5075818;28;20324;-86
2023/11/08 12:41:22;;;;;;;;;;;10.60;95.60;;;;;;5075697;28;19923;-87
2023/11/08 12:43:56;;;;;;;;;;;10.60;95.50;;;;;;5075284;28;19944;-86
2023/11/08 12:46:22;;;;;;;;;;;10.50;95.40;;;;;;5060568;28;19913;-85
2023/11/08 12:48:54;;;;;;;;;;;10.40;95.40;;;;;;5075134;28;19992;-87
2023/11/08 12:51:20;;;;;;;;;;;10.40;95.50;;;;;;5076576;28;20359;-88
2023/11/08 12:53:46;;;;;;;;;;;10.50;95.50;;;;;;5075437;28;19908;-88
2023/11/08 12:56:14;;;;;;;;;;;10.30;95.50;;;;;;5074583;28;19912;-88
2023/11/08 12:58:41;;;;;;;;;;;10.20;95.50;;;;;;5075939;28;19913;-88
2023/11/08 13:01:16;;;;;;;;;;;10.20;95.50;;;;;;5093690;28;20049;-88
2023/11/08 13:03:42;;;;;;;;;;;10.20;95.50;;;;;;5072590;28;19916;-89
2023/11/08 13:06:08;;;;;;;;;;;10.10;95.60;;;;;;5074783;28;19971;-88
2023/11/08 13:08:36;;;;;;;;;;;10.00;95.60;;;;;;5060564;28;19915;-89
2023/11/08 13:11:02;;;;;;;;;;;9.90;95.80;;;;;;5070895;28;20547;-87
2023/11/08 13:13:27;;;;;;;;;;;9.70;95.90;;;;;;5072203;28;19956;-87
2023/11/08 13:15:53;;;;;;;;;;;9.70;96.00;;;;;;5073917;28;19916;-88
2023/11/08 13:18:21;;;;;;;;;;;9.60;96.20;;;;;;5063010;28;20197;-89
2023/11/08 13:20:50;;;;;;;;;;;9.50;96.40;;;;;;5070353;28;19977;-86
2023/11/08 13:23:16;;;;;;;;;;;9.50;96.50;;;;;;5074689;28;19916;-87
2023/11/08 13:25:45;;;;;;;;;;;9.40;96.60;;;;;;5074584;28;19909;-88
2023/11/08 13:28:11;;;;;;;;;;;9.50;96.80;;;;;;5065467;28;19915;-88
2023/11/08 13:30:38;;;;;;;;;;;9.50;96.90;;;;;;5066769;28;19913;-87
2023/11/08 13:33:05;;;;;;;;;;;9.50;96.90;;;;;;5066257;28;20046;-87
2023/11/08 13:35:34;;;;;;;;;;;9.50;97.00;;;;;;5073794;28;20491;-88
2023/11/08 13:38:00;;;;;;;;;;;9.50;97.00;;;;;;5074628;28;19909;-88
2023/11/08 13:40:29;;;;;;;;;;;9.50;97.10;;;;;;5077166;28;19909;-88
2023/11/08 13:42:55;;;;;;;;;;;9.50;97.10;;;;;;5080131;28;19916;-88
2023/11/08 13:45:24;;;;;;;;;;;9.50;97.30;;;;;;5049936;28;19913;-89
2023/11/08 13:47:50;;;;;;;;;;;9.60;97.30;;;;;;5064157;28;19908;-89
2023/11/08 13:50:16;;;;;;;;;;;9.60;97.30;;;;;;5067991;28;20362;-88
2023/11/08 13:52:41;;;;;;;;;;;9.60;97.40;;;;;;5073719;28;19958;-90
2023/11/08 13:55:10;;;;;;;;;;;9.70;97.50;;;;;;5062174;28;19920;-90
2023/11/08 13:57:35;;;;;;;;;;;9.70;97.50;;;;;;5072011;28;19951;-89
2023/11/08 14:00:06;;;;;;;;;;;9.70;97.50;;;;;;5074980;28;19912;-88
2023/11/08 14:02:32;;;;;;;;;;;9.70;97.50;;;;;;5073472;28;20003;-88
2023/11/08 14:05:00;;;;;;;;;;;9.70;97.60;;;;;;5072427;28;20007;-88
2023/11/08 14:07:26;;;;;;;;;;;9.70;97.70;;;;;;5074796;28;19912;-90
2023/11/08 14:09:52;;;;;;;;;;;9.70;97.70;;;;;;5071989;28;19942;-87
2023/11/08 14:12:18;;;;;;;;;;;9.70;97.80;;;;;;5071207;28;19926;-86
2023/11/08 14:14:44;;;;;;;;;;;9.80;97.80;;;;;;5071651;28;20008;-89
2023/11/08 14:17:10;;;;;;;;;;;9.80;97.80;;;;;;5074276;28;19916;-87
2023/11/08 14:19:35;;;;;;;;;;;9.80;97.80;;;;;;5072041;28;20345;-89
2023/11/08 14:22:01;;;;;;;;;;;9.70;97.90;;;;;;5072727;28;19988;-88
2023/11/08 14:24:27;;;;;;;;;;;9.80;98.00;;;;;;5071843;28;20280;-88